createdAt,value
2019-06-10T00:01:02.736Z,1019
2019-06-10T00:06:31.061Z,1019
2019-06-10T00:12:01.484Z,1019
2019-06-10T00:17:28.270Z,1018
2019-06-10T00:22:59.392Z,1018
2019-06-10T00:28:28.359Z,1018
2019-06-10T00:33:58.613Z,1018
2019-06-10T00:39:27.804Z,1018
2019-06-10T00:44:56.592Z,1018
2019-06-10T00:50:26.739Z,1018
2019-06-10T00:55:56.817Z,1018
2019-06-10T01:01:25.967Z,1018
2019-06-10T01:12:24.141Z,1018
2019-06-10T01:17:53.267Z,1018
2019-06-10T01:23:23.365Z,1018
2019-06-10T01:28:53.526Z,1018
2019-06-10T01:34:23.561Z,1018
2019-06-10T01:39:52.703Z,1018
2019-06-10T01:45:22.709Z,1018
2019-06-10T01:50:51.803Z,1018
2019-06-10T01:56:21.474Z,1018
2019-06-10T02:01:51.732Z,1017
2019-06-10T02:07:22.679Z,1017
2019-06-10T02:12:50.812Z,1017
2019-06-10T02:23:51.588Z,1017
2019-06-10T02:29:21.330Z,1017
2019-06-10T02:40:21.466Z,1017
2019-06-10T02:45:46.676Z,1017
2019-06-10T02:51:24.493Z,1017
2019-06-10T02:56:46.849Z,1017
2019-06-10T03:02:18.231Z,1017
2019-06-10T03:07:47.037Z,1017
2019-06-10T03:13:16.258Z,1017
2019-06-10T03:18:46.240Z,1017
2019-06-10T03:24:15.320Z,1017
2019-06-10T03:29:44.525Z,1017
2019-06-10T03:35:14.473Z,1017
2019-06-10T03:40:44.571Z,1017
2019-06-10T03:46:13.855Z,1017
2019-06-10T03:51:43.803Z,1017
2019-06-10T03:57:13.029Z,1017
2019-06-10T04:02:43.232Z,1017
2019-06-10T04:08:13.060Z,1017
2019-06-10T04:13:43.303Z,1017
2019-06-10T04:19:13.362Z,1016
2019-06-10T04:24:43.160Z,1016
2019-06-10T04:30:12.443Z,1016
2019-06-10T04:35:42.658Z,1016
2019-06-10T04:41:09.486Z,1016
2019-06-10T04:46:38.694Z,1016
2019-06-10T04:52:08.768Z,1016
2019-06-10T04:57:37.747Z,1016
2019-06-10T05:03:07.761Z,1016
2019-06-10T05:08:36.810Z,1016
2019-06-10T05:14:06.897Z,1016
2019-06-10T05:19:36.941Z,1016
2019-06-10T05:25:06.115Z,1016
2019-06-10T05:30:36.171Z,1016
2019-06-10T05:36:05.151Z,1016
2019-06-10T05:41:35.156Z,1016
2019-06-10T05:47:06.004Z,1016
2019-06-10T05:52:35.132Z,1016
2019-06-10T05:58:03.535Z,1016
2019-06-10T06:03:36.841Z,1016
2019-06-10T06:09:02.769Z,1016
2019-06-10T06:14:34.652Z,1016
2019-06-10T06:20:02.940Z,1015
2019-06-10T06:25:38.867Z,1016
2019-06-10T06:31:03.286Z,1015
2019-06-10T06:36:33.414Z,1016
2019-06-10T06:42:02.218Z,1015
2019-06-10T06:47:33.795Z,1015
2019-06-10T06:53:19.272Z,1015
2019-06-10T06:58:33.272Z,1015
2019-06-10T07:04:02.412Z,1015
2019-06-10T07:09:30.213Z,1015
2019-06-10T07:14:57.970Z,1015
2019-06-10T07:20:28.079Z,1015
2019-06-10T07:25:58.151Z,1015
2019-06-10T07:31:28.088Z,1015
2019-06-10T07:42:25.393Z,1015
2019-06-10T07:47:55.412Z,1015
2019-06-10T07:53:24.452Z,1015
2019-06-10T07:58:54.519Z,1015
2019-06-10T08:04:24.528Z,1015
2019-06-10T08:09:53.589Z,1015
2019-06-10T08:15:23.655Z,1015
2019-06-10T08:20:53.635Z,1015
2019-06-10T08:26:23.219Z,1015
2019-06-10T08:31:53.143Z,1015
2019-06-10T08:37:23.351Z,1015
2019-06-10T08:42:49.814Z,1015
2019-06-10T08:48:22.545Z,1015
2019-06-10T08:53:50.139Z,1015
2019-06-10T08:59:19.973Z,1015
2019-06-10T09:04:51.148Z,1015
2019-06-10T09:10:19.090Z,1015
2019-06-10T09:16:05.693Z,1015
2019-06-10T09:21:18.168Z,1015
2019-06-10T09:26:51.044Z,1015
2019-06-10T09:32:17.286Z,1015
2019-06-10T09:37:49.818Z,1015
2019-06-10T09:43:17.379Z,1015
2019-06-10T09:48:50.112Z,1015
2019-06-10T09:54:16.511Z,1015
2019-06-10T09:59:48.315Z,1015
2019-06-10T10:05:14.672Z,1015
2019-06-10T10:10:47.874Z,1015
2019-06-10T10:16:13.813Z,1015
2019-06-10T10:21:46.739Z,1015
2019-06-10T10:27:13.370Z,1015
2019-06-10T10:32:44.250Z,1015
2019-06-10T10:38:13.400Z,1015
2019-06-10T10:43:43.494Z,1015
2019-06-10T10:49:10.172Z,1014
2019-06-10T10:54:43.123Z,1014
2019-06-10T11:00:08.282Z,1014
2019-06-10T11:05:38.339Z,1014
2019-06-10T11:11:07.527Z,1014
2019-06-10T11:16:37.607Z,1014
2019-06-10T11:22:06.693Z,1014
2019-06-10T11:27:35.833Z,1014
2019-06-10T11:33:05.939Z,1014
2019-06-10T11:38:35.104Z,1014
2019-06-10T11:44:04.350Z,1014
2019-06-10T11:49:33.433Z,1014
2019-06-10T11:55:11.493Z,1014
2019-06-10T12:00:33.034Z,1014
2019-06-10T12:06:05.026Z,1014
2019-06-10T12:11:30.083Z,1014
2019-06-10T12:17:20.977Z,1014
2019-06-10T12:22:29.239Z,1014
2019-06-10T12:28:03.721Z,1014
2019-06-10T12:33:28.529Z,1014
2019-06-10T12:39:04.017Z,1014
2019-06-10T12:44:27.690Z,1014
2019-06-10T12:49:59.050Z,1014
2019-06-10T12:55:39.091Z,1014
2019-06-10T13:06:28.193Z,1013
2019-06-10T13:12:02.373Z,1013
2019-06-10T13:17:26.484Z,1013
2019-06-10T13:22:58.217Z,1013
2019-06-10T13:28:24.807Z,1013
2019-06-10T13:33:56.606Z,1013
2019-06-10T13:39:26.924Z,1013
2019-06-10T13:44:54.285Z,1013
2019-06-10T13:50:24.863Z,1013
2019-06-10T13:56:08.527Z,1013
2019-06-10T14:01:22.325Z,1013
2019-06-10T14:06:56.675Z,1013
2019-06-10T14:12:20.264Z,1013
2019-06-10T14:17:52.577Z,1013
2019-06-10T14:23:21.803Z,1013
2019-06-10T14:28:52.410Z,1013
2019-06-10T14:34:18.989Z,1013
2019-06-10T14:39:49.171Z,1013
2019-06-10T14:45:19.378Z,1013
2019-06-10T14:50:49.516Z,1013
2019-06-10T14:56:19.736Z,1013
2019-06-10T15:01:48.087Z,1013
2019-06-10T15:07:17.240Z,1013
2019-06-10T15:12:47.384Z,1013
2019-06-10T15:18:18.187Z,1013
2019-06-10T15:23:46.746Z,1013
2019-06-10T15:29:17.510Z,1012
2019-06-10T15:34:47.159Z,1012
2019-06-10T15:40:18.270Z,1012
2019-06-10T15:45:47.721Z,1012
2019-06-10T15:51:19.641Z,1012
2019-06-10T15:56:52.127Z,1012
2019-06-10T16:02:19.155Z,1012
2019-06-10T16:07:47.421Z,1012
2019-06-10T16:13:18.583Z,1012
2019-06-10T16:18:46.924Z,1012
2019-06-10T16:24:17.167Z,1012
2019-06-10T16:29:45.183Z,1012
2019-06-10T16:35:14.990Z,1012
2019-06-10T16:40:44.608Z,1012
2019-06-10T16:46:16.017Z,1012
2019-06-10T16:51:45.092Z,1012
2019-06-10T16:57:14.306Z,1012
2019-06-10T17:02:44.647Z,1012
2019-06-10T17:08:14.786Z,1012
2019-06-10T17:13:44.070Z,1012
2019-06-10T17:19:14.336Z,1012
2019-06-10T17:24:45.213Z,1012
2019-06-10T17:30:13.176Z,1012
2019-06-10T17:35:43.161Z,1012
2019-06-10T17:41:13.222Z,1012
2019-06-10T17:46:42.785Z,1012
2019-06-10T17:52:12.915Z,1012
2019-06-10T17:57:42.932Z,1012
2019-06-10T18:03:13.129Z,1012
2019-06-10T18:08:41.720Z,1012
2019-06-10T18:14:12.271Z,1012
2019-06-10T18:19:43.251Z,1012
2019-06-10T18:25:12.299Z,1012
2019-06-10T18:30:43.237Z,1012
2019-06-10T18:36:12.031Z,1012
2019-06-10T18:41:39.881Z,1012
2019-06-10T18:47:08.384Z,1012
2019-06-10T18:52:38.657Z,1012
2019-06-10T18:58:08.776Z,1012
2019-06-10T19:03:39.595Z,1012
2019-06-10T19:09:09.322Z,1012
2019-06-10T19:14:38.660Z,1012
2019-06-10T19:20:08.565Z,1012
2019-06-10T19:25:38.855Z,1012
2019-06-10T19:31:07.076Z,1012
2019-06-10T19:36:36.137Z,1011
2019-06-10T19:42:09.186Z,1011
2019-06-10T19:47:37.916Z,1011
2019-06-10T19:58:36.189Z,1011
2019-06-10T20:04:03.963Z,1011
2019-06-10T20:09:34.499Z,1011
2019-06-10T20:15:03.333Z,1011
2019-06-10T20:20:33.561Z,1011
2019-06-10T20:26:03.531Z,1011
2019-06-10T20:31:33.766Z,1011
2019-06-10T20:37:04.648Z,1011
2019-06-10T20:42:32.326Z,1011
2019-06-10T20:48:02.801Z,1011
2019-06-10T20:53:33.520Z,1011
2019-06-10T20:59:02.745Z,1011
2019-06-10T21:04:32.266Z,1011
2019-06-10T21:10:02.728Z,1011
2019-06-10T21:15:33.188Z,1011
2019-06-10T21:20:59.969Z,1011
2019-06-10T21:26:32.329Z,1011
2019-06-10T21:32:00.251Z,1011
2019-06-10T21:37:31.960Z,1011
2019-06-10T21:42:59.786Z,1011
2019-06-10T21:48:28.822Z,1011
2019-06-10T21:53:57.736Z,1011
2019-06-10T21:59:26.918Z,1011
2019-06-10T22:04:57.031Z,1011
2019-06-10T22:10:26.158Z,1011
2019-06-10T22:15:57.123Z,1011
2019-06-10T22:21:26.461Z,1011
2019-06-10T22:26:56.466Z,1011
2019-06-10T22:32:26.781Z,1011
2019-06-10T22:37:56.632Z,1011
2019-06-10T22:43:25.747Z,1011
2019-06-10T22:48:55.212Z,1011
2019-06-10T22:54:24.032Z,1011
2019-06-10T22:59:55.005Z,1010
2019-06-10T23:05:23.165Z,1010
2019-06-10T23:10:53.374Z,1010
2019-06-10T23:16:22.221Z,1010
2019-06-10T23:21:49.259Z,1010
2019-06-10T23:27:19.304Z,1010
2019-06-10T23:32:48.409Z,1010
2019-06-10T23:38:18.428Z,1010
2019-06-10T23:43:48.453Z,1010
2019-06-10T23:49:18.579Z,1010
2019-06-10T23:54:48.579Z,1010
